sensor_id;sensor_type;location;lat;lon;timestamp;pressure;altitude;pressure_sealevel;temperature;humidity
46876;BME280;32866;50.160;14.768;2024-01-10T00:01:19;100972.69;;;-13.35;100.00
46876;BME280;32866;50.160;14.768;2024-01-10T00:03:46;100965.19;;;-13.43;100.00
46876;BME280;32866;50.160;14.768;2024-01-10T00:06:12;100966.06;;;-13.37;100.00
46876;BME280;32866;50.160;14.768;2024-01-10T00:08:38;100964.47;;;-13.38;100.00
46876;BME280;32866;50.160;14.768;2024-01-10T00:11:03;100962.22;;;-13.47;100.00
46876;BME280;32866;50.160;14.768;2024-01-10T00:13:31;100955.81;;;-13.51;100.00
46876;BME280;32866;50.160;14.768;2024-01-10T00:15:57;100955.19;;;-13.41;100.00
46876;BME280;32866;50.160;14.768;2024-01-10T00:18:24;100959.31;;;-13.28;100.00
46876;BME280;32866;50.160;14.768;2024-01-10T00:20:51;100956.13;;;-13.30;100.00
46876;BME280;32866;50.160;14.768;2024-01-10T00:23:19;100957.59;;;-13.39;100.00
46876;BME280;32866;50.160;14.768;2024-01-10T00:25:45;100949.81;;;-13.46;100.00
46876;BME280;32866;50.160;14.768;2024-01-10T00:28:11;100950.00;;;-13.53;100.00
46876;BME280;32866;50.160;14.768;2024-01-10T00:30:37;100952.00;;;-13.60;100.00
46876;BME280;32866;50.160;14.768;2024-01-10T00:33:03;100946.56;;;-13.53;100.00
46876;BME280;32866;50.160;14.768;2024-01-10T00:35:29;100933.75;;;-13.45;100.00
46876;BME280;32866;50.160;14.768;2024-01-10T00:37:55;100939.19;;;-13.51;100.00
46876;BME280;32866;50.160;14.768;2024-01-10T00:40:20;100942.06;;;-13.53;100.00
46876;BME280;32866;50.160;14.768;2024-01-10T00:42:47;100937.84;;;-13.54;100.00
46876;BME280;32866;50.160;14.768;2024-01-10T00:45:12;100934.63;;;-13.56;100.00
46876;BME280;32866;50.160;14.768;2024-01-10T00:47:38;100933.13;;;-13.52;100.00
46876;BME280;32866;50.160;14.768;2024-01-10T00:50:04;100928.72;;;-13.46;100.00
46876;BME280;32866;50.160;14.768;2024-01-10T00:52:30;100929.50;;;-13.46;100.00
46876;BME280;32866;50.160;14.768;2024-01-10T00:54:56;100929.75;;;-13.47;100.00
46876;BME280;32866;50.160;14.768;2024-01-10T00:57:22;100931.38;;;-13.46;100.00
46876;BME280;32866;50.160;14.768;2024-01-10T00:59:47;100937.44;;;-13.46;100.00
46876;BME280;32866;50.160;14.768;2024-01-10T01:02:13;100937.63;;;-13.35;100.00
46876;BME280;32866;50.160;14.768;2024-01-10T01:04:39;100940.50;;;-13.37;100.00
46876;BME280;32866;50.160;14.768;2024-01-10T01:07:05;100938.56;;;-13.41;100.00
46876;BME280;32866;50.160;14.768;2024-01-10T01:09:31;100943.53;;;-13.45;100.00
46876;BME280;32866;50.160;14.768;2024-01-10T01:11:56;100945.25;;;-13.51;100.00
46876;BME280;32866;50.160;14.768;2024-01-10T01:14:22;100947.34;;;-13.53;100.00
46876;BME280;32866;50.160;14.768;2024-01-10T01:16:48;100948.50;;;-13.49;100.00
46876;BME280;32866;50.160;14.768;2024-01-10T01:19:14;100950.53;;;-13.51;100.00
46876;BME280;32866;50.160;14.768;2024-01-10T01:21:39;100946.88;;;-13.50;100.00
46876;BME280;32866;50.160;14.768;2024-01-10T01:24:05;100938.88;;;-13.55;100.00
46876;BME280;32866;50.160;14.768;2024-01-10T01:26:31;100944.31;;;-13.45;100.00
46876;BME280;32866;50.160;14.768;2024-01-10T01:28:57;100942.00;;;-13.58;100.00
46876;BME280;32866;50.160;14.768;2024-01-10T01:31:22;100937.09;;;-13.66;100.00
46876;BME280;32866;50.160;14.768;2024-01-10T01:33:48;100928.66;;;-13.68;100.00
46876;BME280;32866;50.160;14.768;2024-01-10T01:36:14;100931.19;;;-13.56;100.00
46876;BME280;32866;50.160;14.768;2024-01-10T01:38:40;100936.47;;;-13.56;100.00
46876;BME280;32866;50.160;14.768;2024-01-10T01:41:06;100933.28;;;-13.58;100.00
46876;BME280;32866;50.160;14.768;2024-01-10T01:43:32;100930.88;;;-13.60;100.00
46876;BME280;32866;50.160;14.768;2024-01-10T01:45:57;100936.41;;;-13.61;100.00
46876;BME280;32866;50.160;14.768;2024-01-10T01:48:24;100927.19;;;-13.59;100.00
46876;BME280;32866;50.160;14.768;2024-01-10T01:50:51;100935.69;;;-13.57;100.00
46876;BME280;32866;50.160;14.768;2024-01-10T01:53:17;100926.41;;;-13.59;100.00
46876;BME280;32866;50.160;14.768;2024-01-10T01:55:44;100930.34;;;-13.62;100.00
46876;BME280;32866;50.160;14.768;2024-01-10T01:58:11;100925.28;;;-13.64;100.00
46876;BME280;32866;50.160;14.768;2024-01-10T02:00:38;100914.59;;;-13.57;100.00
46876;BME280;32866;50.160;14.768;2024-01-10T02:03:04;100917.38;;;-13.47;100.00
46876;BME280;32866;50.160;14.768;2024-01-10T02:05:30;100918.81;;;-13.39;100.00
46876;BME280;32866;50.160;14.768;2024-01-10T02:07:56;100919.81;;;-13.23;100.00
46876;BME280;32866;50.160;14.768;2024-01-10T02:10:22;100918.34;;;-13.14;100.00
46876;BME280;32866;50.160;14.768;2024-01-10T02:12:48;100915.09;;;-13.21;100.00
46876;BME280;32866;50.160;14.768;2024-01-10T02:15:14;100913.41;;;-13.27;100.00
46876;BME280;32866;50.160;14.768;2024-01-10T02:17:40;100915.81;;;-13.26;100.00
46876;BME280;32866;50.160;14.768;2024-01-10T02:22:34;100910.59;;;-13.20;100.00
46876;BME280;32866;50.160;14.768;2024-01-10T02:25:00;100916.91;;;-13.04;100.00
46876;BME280;32866;50.160;14.768;2024-01-10T02:27:26;100912.25;;;-12.97;100.00
46876;BME280;32866;50.160;14.768;2024-01-10T02:29:52;100914.41;;;-12.94;100.00
46876;BME280;32866;50.160;14.768;2024-01-10T02:32:18;100912.41;;;-13.04;100.00
46876;BME280;32866;50.160;14.768;2024-01-10T02:34:44;100915.88;;;-13.03;100.00
46876;BME280;32866;50.160;14.768;2024-01-10T02:37:10;100920.69;;;-13.17;100.00
46876;BME280;32866;50.160;14.768;2024-01-10T02:39:35;100912.31;;;-13.31;100.00
46876;BME280;32866;50.160;14.768;2024-01-10T02:42:01;100913.28;;;-13.37;100.00
46876;BME280;32866;50.160;14.768;2024-01-10T02:44:27;100918.72;;;-13.44;100.00
46876;BME280;32866;50.160;14.768;2024-01-10T02:46:53;100915.38;;;-13.39;100.00
46876;BME280;32866;50.160;14.768;2024-01-10T02:49:19;100908.13;;;-13.27;100.00
46876;BME280;32866;50.160;14.768;2024-01-10T02:51:45;100907.81;;;-13.31;100.00
46876;BME280;32866;50.160;14.768;2024-01-10T02:54:11;100898.88;;;-13.30;100.00
46876;BME280;32866;50.160;14.768;2024-01-10T02:56:37;100895.88;;;-13.38;100.00
46876;BME280;32866;50.160;14.768;2024-01-10T02:59:02;100902.41;;;-13.41;100.00
46876;BME280;32866;50.160;14.768;2024-01-10T03:01:28;100900.03;;;-13.42;100.00
46876;BME280;32866;50.160;14.768;2024-01-10T03:03:54;100896.84;;;-13.45;100.00
46876;BME280;32866;50.160;14.768;2024-01-10T03:06:20;100893.97;;;-13.60;100.00
46876;BME280;32866;50.160;14.768;2024-01-10T03:08:46;100890.78;;;-13.62;100.00
46876;BME280;32866;50.160;14.768;2024-01-10T03:11:11;100896.22;;;-13.69;100.00
46876;BME280;32866;50.160;14.768;2024-01-10T03:13:37;100889.16;;;-13.63;100.00
46876;BME280;32866;50.160;14.768;2024-01-10T03:16:04;100896.28;;;-13.64;100.00
46876;BME280;32866;50.160;14.768;2024-01-10T03:18:30;100893.00;;;-13.71;100.00
46876;BME280;32866;50.160;14.768;2024-01-10T03:20:56;100881.81;;;-13.61;100.00
46876;BME280;32866;50.160;14.768;2024-01-10T03:23:22;100883.09;;;-13.47;100.00
46876;BME280;32866;50.160;14.768;2024-01-10T03:25:47;100882.50;;;-13.32;100.00
46876;BME280;32866;50.160;14.768;2024-01-10T03:28:17;100884.34;;;-13.32;100.00
46876;BME280;32866;50.160;14.768;2024-01-10T03:30:43;100884.66;;;-13.46;100.00
46876;BME280;32866;50.160;14.768;2024-01-10T03:33:09;100876.06;;;-13.58;100.00
46876;BME280;32866;50.160;14.768;2024-01-10T03:35:35;100879.31;;;-13.68;100.00
46876;BME280;32866;50.160;14.768;2024-01-10T03:38:01;100887.16;;;-13.56;100.00
46876;BME280;32866;50.160;14.768;2024-01-10T03:40:26;100891.63;;;-13.39;100.00
46876;BME280;32866;50.160;14.768;2024-01-10T03:42:52;100895.41;;;-13.35;100.00
46876;BME280;32866;50.160;14.768;2024-01-10T03:45:18;100888.63;;;-13.26;100.00
46876;BME280;32866;50.160;14.768;2024-01-10T03:47:46;100888.59;;;-13.09;100.00
46876;BME280;32866;50.160;14.768;2024-01-10T03:50:15;100882.28;;;-13.08;100.00
46876;BME280;32866;50.160;14.768;2024-01-10T03:52:42;100886.66;;;-13.14;100.00
46876;BME280;32866;50.160;14.768;2024-01-10T03:55:09;100882.38;;;-13.20;100.00
46876;BME280;32866;50.160;14.768;2024-01-10T03:57:34;100867.66;;;-13.16;100.00
46876;BME280;32866;50.160;14.768;2024-01-10T04:00:00;100883.78;;;-13.12;100.00
46876;BME280;32866;50.160;14.768;2024-01-10T04:02:26;100875.38;;;-13.09;100.00
46876;BME280;32866;50.160;14.768;2024-01-10T04:04:53;100873.53;;;-13.09;100.00
46876;BME280;32866;50.160;14.768;2024-01-10T04:07:19;100865.31;;;-13.12;100.00
46876;BME280;32866;50.160;14.768;2024-01-10T04:09:45;100863.38;;;-13.22;100.00
46876;BME280;32866;50.160;14.768;2024-01-10T04:12:10;100862.72;;;-13.29;100.00
46876;BME280;32866;50.160;14.768;2024-01-10T04:14:36;100871.13;;;-13.32;100.00
46876;BME280;32866;50.160;14.768;2024-01-10T04:17:02;100865.25;;;-13.39;100.00
46876;BME280;32866;50.160;14.768;2024-01-10T04:19:30;100866.78;;;-13.43;100.00
46876;BME280;32866;50.160;14.768;2024-01-10T04:21:56;100873.28;;;-13.29;100.00
46876;BME280;32866;50.160;14.768;2024-01-10T04:24:22;100873.41;;;-13.19;100.00
46876;BME280;32866;50.160;14.768;2024-01-10T04:26:47;100873.47;;;-13.36;100.00
46876;BME280;32866;50.160;14.768;2024-01-10T04:29:13;100875.25;;;-13.41;100.00
46876;BME280;32866;50.160;14.768;2024-01-10T04:31:39;100870.53;;;-13.39;100.00
46876;BME280;32866;50.160;14.768;2024-01-10T04:34:05;100871.38;;;-13.34;100.00
46876;BME280;32866;50.160;14.768;2024-01-10T04:36:32;100878.34;;;-13.06;100.00
46876;BME280;32866;50.160;14.768;2024-01-10T04:38:58;100873.81;;;-12.88;100.00
46876;BME280;32866;50.160;14.768;2024-01-10T04:41:24;100870.53;;;-12.78;100.00
46876;BME280;32866;50.160;14.768;2024-01-10T04:43:50;100863.25;;;-12.88;100.00
46876;BME280;32866;50.160;14.768;2024-01-10T04:46:16;100865.84;;;-12.93;100.00
46876;BME280;32866;50.160;14.768;2024-01-10T04:48:42;100873.53;;;-13.09;100.00
46876;BME280;32866;50.160;14.768;2024-01-10T04:51:08;100871.34;;;-13.17;100.00
46876;BME280;32866;50.160;14.768;2024-01-10T04:53:34;100872.94;;;-13.16;100.00
46876;BME280;32866;50.160;14.768;2024-01-10T04:55:59;100865.25;;;-13.17;100.00
46876;BME280;32866;50.160;14.768;2024-01-10T04:58:25;100860.91;;;-13.07;100.00
46876;BME280;32866;50.160;14.768;2024-01-10T05:00:51;100852.59;;;-12.98;100.00
46876;BME280;32866;50.160;14.768;2024-01-10T05:03:17;100857.91;;;-12.93;100.00
46876;BME280;32866;50.160;14.768;2024-01-10T05:05:43;100861.97;;;-12.85;100.00
46876;BME280;32866;50.160;14.768;2024-01-10T05:08:08;100862.19;;;-12.87;100.00
46876;BME280;32866;50.160;14.768;2024-01-10T05:10:34;100860.63;;;-12.88;100.00
46876;BME280;32866;50.160;14.768;2024-01-10T05:13:00;100862.13;;;-12.92;100.00
46876;BME280;32866;50.160;14.768;2024-01-10T05:15:26;100864.22;;;-12.94;100.00
46876;BME280;32866;50.160;14.768;2024-01-10T05:17:52;100856.50;;;-12.79;100.00
46876;BME280;32866;50.160;14.768;2024-01-10T05:20:18;100860.63;;;-12.88;100.00
46876;BME280;32866;50.160;14.768;2024-01-10T05:22:43;100850.25;;;-12.95;100.00
46876;BME280;32866;50.160;14.768;2024-01-10T05:25:09;100859.13;;;-13.01;100.00
46876;BME280;32866;50.160;14.768;2024-01-10T05:27:35;100857.22;;;-13.06;100.00
46876;BME280;32866;50.160;14.768;2024-01-10T05:30:01;100855.50;;;-13.17;100.00
46876;BME280;32866;50.160;14.768;2024-01-10T05:32:27;100863.84;;;-13.25;100.00
46876;BME280;32866;50.160;14.768;2024-01-10T05:34:53;100880.28;;;-13.18;100.00
46876;BME280;32866;50.160;14.768;2024-01-10T05:37:19;100862.84;;;-13.19;100.00
46876;BME280;32866;50.160;14.768;2024-01-10T05:39:45;100864.16;;;-13.21;100.00
46876;BME280;32866;50.160;14.768;2024-01-10T05:42:11;100861.75;;;-13.23;100.00
46876;BME280;32866;50.160;14.768;2024-01-10T05:44:36;100865.59;;;-13.31;100.00
46876;BME280;32866;50.160;14.768;2024-01-10T05:47:02;100864.53;;;-13.35;100.00
46876;BME280;32866;50.160;14.768;2024-01-10T05:49:28;100862.06;;;-13.41;100.00
46876;BME280;32866;50.160;14.768;2024-01-10T05:51:54;100862.00;;;-13.47;100.00
46876;BME280;32866;50.160;14.768;2024-01-10T05:54:20;100861.50;;;-13.43;100.00
46876;BME280;32866;50.160;14.768;2024-01-10T05:56:45;100858.88;;;-13.43;100.00
46876;BME280;32866;50.160;14.768;2024-01-10T05:59:11;100859.91;;;-13.45;100.00
46876;BME280;32866;50.160;14.768;2024-01-10T06:01:37;100857.03;;;-13.43;100.00
46876;BME280;32866;50.160;14.768;2024-01-10T06:04:06;100858.34;;;-13.40;100.00
46876;BME280;32866;50.160;14.768;2024-01-10T06:06:31;100852.06;;;-13.39;100.00
46876;BME280;32866;50.160;14.768;2024-01-10T06:08:58;100848.69;;;-13.35;100.00
46876;BME280;32866;50.160;14.768;2024-01-10T06:11:23;100857.63;;;-13.36;100.00
46876;BME280;32866;50.160;14.768;2024-01-10T06:13:49;100854.25;;;-13.31;100.00
46876;BME280;32866;50.160;14.768;2024-01-10T06:16:15;100858.47;;;-13.35;100.00
46876;BME280;32866;50.160;14.768;2024-01-10T06:18:41;100853.50;;;-13.32;100.00
46876;BME280;32866;50.160;14.768;2024-01-10T06:21:07;100852.13;;;-13.34;100.00
46876;BME280;32866;50.160;14.768;2024-01-10T06:23:33;100850.59;;;-13.30;100.00
46876;BME280;32866;50.160;14.768;2024-01-10T06:25:59;100859.53;;;-13.31;100.00
46876;BME280;32866;50.160;14.768;2024-01-10T06:28:25;100848.00;;;-13.25;100.00
46876;BME280;32866;50.160;14.768;2024-01-10T06:30:51;100855.03;;;-13.31;100.00
46876;BME280;32866;50.160;14.768;2024-01-10T06:33:17;100845.00;;;-13.34;100.00
46876;BME280;32866;50.160;14.768;2024-01-10T06:35:45;100849.72;;;-13.36;100.00
46876;BME280;32866;50.160;14.768;2024-01-10T06:38:12;100856.53;;;-13.40;100.00
46876;BME280;32866;50.160;14.768;2024-01-10T06:40:38;100851.50;;;-13.41;100.00
46876;BME280;32866;50.160;14.768;2024-01-10T06:43:04;100849.41;;;-13.39;100.00
46876;BME280;32866;50.160;14.768;2024-01-10T06:45:30;100848.88;;;-13.41;100.00
46876;BME280;32866;50.160;14.768;2024-01-10T06:47:55;100852.41;;;-13.31;100.00
46876;BME280;32866;50.160;14.768;2024-01-10T06:50:21;100847.94;;;-13.30;100.00
46876;BME280;32866;50.160;14.768;2024-01-10T06:52:48;100853.97;;;-13.35;100.00
46876;BME280;32866;50.160;14.768;2024-01-10T06:55:14;100861.50;;;-13.43;100.00
46876;BME280;32866;50.160;14.768;2024-01-10T06:57:41;100860.69;;;-13.44;100.00
46876;BME280;32866;50.160;14.768;2024-01-10T07:00:07;100866.94;;;-13.33;100.00
46876;BME280;32866;50.160;14.768;2024-01-10T07:02:39;100865.63;;;-13.09;100.00
46876;BME280;32866;50.160;14.768;2024-01-10T07:05:10;100871.19;;;-12.88;100.00
46876;BME280;32866;50.160;14.768;2024-01-10T07:07:35;100872.44;;;-12.69;100.00
46876;BME280;32866;50.160;14.768;2024-01-10T07:10:01;100873.69;;;-12.54;100.00
46876;BME280;32866;50.160;14.768;2024-01-10T07:12:33;100875.34;;;-12.48;100.00
46876;BME280;32866;50.160;14.768;2024-01-10T07:14:59;100876.41;;;-11.95;100.00
46876;BME280;32866;50.160;14.768;2024-01-10T07:17:25;100878.19;;;-11.68;100.00
46876;BME280;32866;50.160;14.768;2024-01-10T07:19:51;100871.66;;;-11.12;100.00
46876;BME280;32866;50.160;14.768;2024-01-10T07:22:17;100879.97;;;-10.93;100.00
46876;BME280;32866;50.160;14.768;2024-01-10T07:24:43;100873.06;;;-10.94;100.00
46876;BME280;32866;50.160;14.768;2024-01-10T07:27:09;100884.03;;;-10.75;100.00
46876;BME280;32866;50.160;14.768;2024-01-10T07:29:35;100886.56;;;-10.96;100.00
46876;BME280;32866;50.160;14.768;2024-01-10T07:32:01;100880.66;;;-11.08;100.00
46876;BME280;32866;50.160;14.768;2024-01-10T07:34:27;100879.75;;;-10.76;100.00
46876;BME280;32866;50.160;14.768;2024-01-10T07:36:52;100877.78;;;-10.33;100.00
46876;BME280;32866;50.160;14.768;2024-01-10T07:39:19;100876.22;;;-9.98;100.00
46876;BME280;32866;50.160;14.768;2024-01-10T07:41:45;100883.88;;;-10.33;100.00
46876;BME280;32866;50.160;14.768;2024-01-10T07:44:11;100886.69;;;-10.65;100.00
46876;BME280;32866;50.160;14.768;2024-01-10T07:46:37;100883.97;;;-10.86;100.00
46876;BME280;32866;50.160;14.768;2024-01-10T07:49:03;100891.03;;;-11.02;100.00
46876;BME280;32866;50.160;14.768;2024-01-10T07:51:30;100894.94;;;-11.09;100.00
46876;BME280;32866;50.160;14.768;2024-01-10T07:53:56;100894.41;;;-11.11;100.00
46876;BME280;32866;50.160;14.768;2024-01-10T07:56:22;100895.25;;;-11.11;100.00
46876;BME280;32866;50.160;14.768;2024-01-10T07:58:48;100897.44;;;-10.92;100.00
46876;BME280;32866;50.160;14.768;2024-01-10T08:01:14;100898.56;;;-10.78;100.00
46876;BME280;32866;50.160;14.768;2024-01-10T08:03:40;100897.03;;;-10.69;100.00
46876;BME280;32866;50.160;14.768;2024-01-10T08:06:06;100890.16;;;-10.59;100.00
46876;BME280;32866;50.160;14.768;2024-01-10T08:08:31;100888.88;;;-10.47;100.00
46876;BME280;32866;50.160;14.768;2024-01-10T08:10:57;100897.41;;;-10.14;100.00
46876;BME280;32866;50.160;14.768;2024-01-10T08:13:23;100904.59;;;-9.06;100.00
46876;BME280;32866;50.160;14.768;2024-01-10T08:15:49;100904.16;;;-8.09;100.00
46876;BME280;32866;50.160;14.768;2024-01-10T08:18:15;100901.91;;;-7.57;100.00
46876;BME280;32866;50.160;14.768;2024-01-10T08:20:40;100902.34;;;-7.44;100.00
46876;BME280;32866;50.160;14.768;2024-01-10T08:23:06;100903.16;;;-6.91;100.00
46876;BME280;32866;50.160;14.768;2024-01-10T08:25:32;100899.91;;;-6.87;100.00
46876;BME280;32866;50.160;14.768;2024-01-10T08:27:58;100901.22;;;-6.85;100.00
46876;BME280;32866;50.160;14.768;2024-01-10T08:30:24;100904.06;;;-6.76;100.00
46876;BME280;32866;50.160;14.768;2024-01-10T08:32:50;100912.56;;;-6.50;100.00
46876;BME280;32866;50.160;14.768;2024-01-10T08:35:16;100909.47;;;-6.00;100.00
46876;BME280;32866;50.160;14.768;2024-01-10T08:37:41;100900.66;;;-5.16;100.00
46876;BME280;32866;50.160;14.768;2024-01-10T08:40:12;100901.44;;;-4.88;100.00
46876;BME280;32866;50.160;14.768;2024-01-10T08:42:40;100903.66;;;-5.36;100.00
46876;BME280;32866;50.160;14.768;2024-01-10T08:45:06;100898.94;;;-5.59;100.00
46876;BME280;32866;50.160;14.768;2024-01-10T08:47:33;100900.41;;;-6.18;100.00
46876;BME280;32866;50.160;14.768;2024-01-10T08:50:00;100905.75;;;-6.18;100.00
46876;BME280;32866;50.160;14.768;2024-01-10T08:52:26;100904.28;;;-6.10;100.00
46876;BME280;32866;50.160;14.768;2024-01-10T08:54:52;100905.63;;;-6.51;100.00
46876;BME280;32866;50.160;14.768;2024-01-10T08:57:17;100899.97;;;-6.93;100.00
46876;BME280;32866;50.160;14.768;2024-01-10T08:59:43;100898.94;;;-6.73;100.00
46876;BME280;32866;50.160;14.768;2024-01-10T09:02:10;100899.25;;;-6.98;100.00
46876;BME280;32866;50.160;14.768;2024-01-10T09:04:36;100903.28;;;-6.77;100.00
46876;BME280;32866;50.160;14.768;2024-01-10T09:07:01;100902.19;;;-5.94;100.00
46876;BME280;32866;50.160;14.768;2024-01-10T09:09:27;100899.44;;;-5.10;100.00
46876;BME280;32866;50.160;14.768;2024-01-10T09:11:53;100903.63;;;-5.17;100.00
46876;BME280;32866;50.160;14.768;2024-01-10T09:14:19;100904.81;;;-5.75;100.00
46876;BME280;32866;50.160;14.768;2024-01-10T09:16:45;100906.31;;;-6.21;100.00
46876;BME280;32866;50.160;14.768;2024-01-10T09:19:11;100909.28;;;-6.42;100.00
46876;BME280;32866;50.160;14.768;2024-01-10T09:21:37;100907.22;;;-6.50;100.00
46876;BME280;32866;50.160;14.768;2024-01-10T09:24:02;100899.97;;;-6.25;100.00
46876;BME280;32866;50.160;14.768;2024-01-10T09:26:33;100903.13;;;-5.06;100.00
46876;BME280;32866;50.160;14.768;2024-01-10T09:28:59;100901.78;;;-5.36;100.00
46876;BME280;32866;50.160;14.768;2024-01-10T09:31:25;100903.78;;;-5.28;100.00
46876;BME280;32866;50.160;14.768;2024-01-10T09:33:51;100896.59;;;-4.72;100.00
46876;BME280;32866;50.160;14.768;2024-01-10T09:36:16;100895.50;;;-3.84;100.00
46876;BME280;32866;50.160;14.768;2024-01-10T09:38:42;100892.63;;;-4.47;100.00
46876;BME280;32866;50.160;14.768;2024-01-10T09:41:08;100878.88;;;-4.81;100.00
46876;BME280;32866;50.160;14.768;2024-01-10T09:43:36;100884.66;;;-4.01;100.00
46876;BME280;32866;50.160;14.768;2024-01-10T09:46:02;100887.09;;;-4.14;100.00
46876;BME280;32866;50.160;14.768;2024-01-10T09:48:29;100890.97;;;-4.20;100.00
46876;BME280;32866;50.160;14.768;2024-01-10T09:50:55;100889.91;;;-4.19;100.00
46876;BME280;32866;50.160;14.768;2024-01-10T09:53:25;100875.97;;;-3.84;100.00
46876;BME280;32866;50.160;14.768;2024-01-10T09:55:52;100885.47;;;-3.56;100.00
46876;BME280;32866;50.160;14.768;2024-01-10T09:58:24;100884.81;;;-3.61;100.00
46876;BME280;32866;50.160;14.768;2024-01-10T10:00:50;100884.56;;;-3.74;100.00
46876;BME280;32866;50.160;14.768;2024-01-10T10:03:17;100870.19;;;-2.75;100.00
46876;BME280;32866;50.160;14.768;2024-01-10T10:05:43;100869.78;;;-0.99;100.00
46876;BME280;32866;50.160;14.768;2024-01-10T10:08:12;100865.41;;;-0.10;100.00
46876;BME280;32866;50.160;14.768;2024-01-10T10:10:41;100863.38;;;-0.85;100.00
46876;BME280;32866;50.160;14.768;2024-01-10T10:13:10;100860.03;;;-1.21;100.00
46876;BME280;32866;50.160;14.768;2024-01-10T10:15:56;100853.16;;;-1.01;100.00
46876;BME280;32866;50.160;14.768;2024-01-10T10:18:23;100861.03;;;-1.34;100.00
46876;BME280;32866;50.160;14.768;2024-01-10T10:20:48;100861.91;;;-1.86;100.00
46876;BME280;32866;50.160;14.768;2024-01-10T10:23:14;100866.97;;;-2.28;100.00
46876;BME280;32866;50.160;14.768;2024-01-10T10:25:44;100862.53;;;-2.59;100.00
46876;BME280;32866;50.160;14.768;2024-01-10T10:28:10;100874.38;;;-2.51;100.00
46876;BME280;32866;50.160;14.768;2024-01-10T10:30:35;100871.56;;;-2.29;100.00
46876;BME280;32866;50.160;14.768;2024-01-10T10:33:02;100860.00;;;-1.68;100.00
46876;BME280;32866;50.160;14.768;2024-01-10T10:35:28;100855.59;;;-0.57;100.00
46876;BME280;32866;50.160;14.768;2024-01-10T10:37:54;100860.16;;;0.48;100.00
46876;BME280;32866;50.160;14.768;2024-01-10T10:40:20;100857.16;;;0.74;100.00
46876;BME280;32866;50.160;14.768;2024-01-10T10:42:49;100855.88;;;0.47;100.00
46876;BME280;32866;50.160;14.768;2024-01-10T10:45:20;100847.97;;;0.29;100.00
46876;BME280;32866;50.160;14.768;2024-01-10T10:47:56;100847.78;;;0.47;100.00
46876;BME280;32866;50.160;14.768;2024-01-10T10:50:22;100847.19;;;0.99;100.00
46876;BME280;32866;50.160;14.768;2024-01-10T10:52:58;100848.50;;;1.42;100.00
46876;BME280;32866;50.160;14.768;2024-01-10T10:55:25;100840.47;;;1.99;100.00
46876;BME280;32866;50.160;14.768;2024-01-10T10:57:52;100843.84;;;1.96;100.00
46876;BME280;32866;50.160;14.768;2024-01-10T11:00:21;100847.13;;;1.48;100.00
46876;BME280;32866;50.160;14.768;2024-01-10T11:02:56;100846.28;;;1.07;100.00
46876;BME280;32866;50.160;14.768;2024-01-10T11:05:23;100833.09;;;0.93;100.00
46876;BME280;32866;50.160;14.768;2024-01-10T11:07:49;100830.44;;;1.59;100.00
46876;BME280;32866;50.160;14.768;2024-01-10T11:10:19;100838.25;;;2.17;100.00
46876;BME280;32866;50.160;14.768;2024-01-10T11:17:57;100814.81;;;3.01;97.10
46876;BME280;32866;50.160;14.768;2024-01-10T11:25:44;100817.91;;;3.34;94.54
46876;BME280;32866;50.160;14.768;2024-01-10T11:28:11;100816.78;;;4.14;94.93
46876;BME280;32866;50.160;14.768;2024-01-10T11:30:38;100813.63;;;4.77;80.27
46876;BME280;32866;50.160;14.768;2024-01-10T11:38:30;100818.09;;;4.66;69.22
46876;BME280;32866;50.160;14.768;2024-01-10T11:40:56;100806.47;;;5.19;66.99
46876;BME280;32866;50.160;14.768;2024-01-10T11:43:22;100810.97;;;5.65;65.45
46876;BME280;32866;50.160;14.768;2024-01-10T11:45:51;100806.03;;;6.04;60.30
46876;BME280;32866;50.160;14.768;2024-01-10T11:48:25;100806.19;;;6.19;56.52
46876;BME280;32866;50.160;14.768;2024-01-10T11:50:52;100807.19;;;6.41;56.66
46876;BME280;32866;50.160;14.768;2024-01-10T11:56:14;100807.03;;;6.26;54.43
46876;BME280;32866;50.160;14.768;2024-01-10T12:01:19;100799.16;;;6.59;53.29
46876;BME280;32866;50.160;14.768;2024-01-10T12:03:44;100796.53;;;6.69;54.06
46876;BME280;32866;50.160;14.768;2024-01-10T12:06:11;100784.38;;;7.15;52.34
46876;BME280;32866;50.160;14.768;2024-01-10T12:08:37;100778.25;;;7.33;51.46
46876;BME280;32866;50.160;14.768;2024-01-10T12:11:03;100776.00;;;6.83;47.64
46876;BME280;32866;50.160;14.768;2024-01-10T12:13:30;100778.94;;;6.63;49.11
46876;BME280;32866;50.160;14.768;2024-01-10T12:15:57;100784.78;;;6.62;50.00
46876;BME280;32866;50.160;14.768;2024-01-10T12:18:23;100773.19;;;6.72;49.71
46876;BME280;32866;50.160;14.768;2024-01-10T12:20:49;100778.59;;;6.68;49.92
46876;BME280;32866;50.160;14.768;2024-01-10T12:23:15;100769.06;;;6.93;49.59
46876;BME280;32866;50.160;14.768;2024-01-10T12:25:41;100772.66;;;7.08;48.24
46876;BME280;32866;50.160;14.768;2024-01-10T12:28:06;100770.66;;;7.01;47.65
46876;BME280;32866;50.160;14.768;2024-01-10T12:30:32;100773.41;;;7.04;48.77
46876;BME280;32866;50.160;14.768;2024-01-10T12:33:01;100765.78;;;7.32;47.51
46876;BME280;32866;50.160;14.768;2024-01-10T12:35:27;100764.63;;;7.36;47.74
46876;BME280;32866;50.160;14.768;2024-01-10T12:37:53;100765.72;;;7.21;46.35
46876;BME280;32866;50.160;14.768;2024-01-10T12:40:19;100758.63;;;7.05;47.17
46876;BME280;32866;50.160;14.768;2024-01-10T12:42:45;100767.84;;;6.86;47.10
46876;BME280;32866;50.160;14.768;2024-01-10T12:45:23;100770.16;;;6.81;47.74